Flight Briefing for CPX226

Departure Arrival
Los Angeles International Airport (KLAX)
Click to view FAA NOTAMS
Daniel K Inouye International Airport (PHNL)
Click to view FAA NOTAMS
Departure Time Arrival Time
0130 UTC 0730 UTC
Aircraft Distance
B767-300BDSF 2267nm
Departure METAR Arrival METAR
KLAX 152053Z 25012KT 9SM FEW027 BKN075 BKN160 15/09 A3012 RMK AO2 SLP199 T01500089 58002 PHNL 152053Z 03008G19KT 10SM FEW025 SCT040 BKN055 24/15 A3001 RMK AO2 RAB38E45 SLP161 P0000 60000 T02390150 50005
Suggested Route
SUMMR1 DINTY DUETS R576 DENNS MAGGI3


View recent IFR Routes data
Notes



Charts and Procedures

Charts for KLAX
No chart available
Charts for PHNL
No chart available

Ventusky Weather